Weather at Juanda International Airport

Public forecast

Using degrees Celsius for public forecast. Weather courtesy of forecast.io.

Current aviation weather report (METAR) for Juanda International Airport

Retrieved 2021/12/05 15:30 UTC (39 minutes ago):

WARR 051530Z 23006KT 6000 SCT020 27/24 Q1009 NOSIG

Aviation forecast (TAF) for Juanda International Airport

Retrieved 2021/12/05 12:06 UTC (4 hours ago):

TAF WARR 051100Z 0512/0612 28007KT 8000 SCT020 PROB30 TEMPO 0515/0519 4000 -RA BKN019 BECMG 0520/0522 4000 HZ FEW020 BECMG 0600/0602 09005KT 9999